Ralston, Nebraska
Current Conditions -  °F | °C
As of 11:55 PM on Friday 28 Nov 2014 (Local Time) from KMLE Reporting Station
Clear Clear  
Wind Chill: 32°   Ceiling: Unl
Heat Index: 32°   Visibility: 10mi
Dew Point: 29°   Wind: 0mph
Humidity: 87%   Direction: NA
Pressure: 29.61"   Gusts: NA
Location:  41.166°N, 96.0444°W
Report Text: KMLE 290555Z AUTO 00000KT 10SM CLR 00/M02 A2961 RMK AO2 T00001019 10081 20000 401341036
Loading
Personal Weather Stations






























Interactive Weather Map New forecast layout! Learn more

10-Day Weather Forecast

Advertisements
Track Severe Weather on mobile